Time;durP1;ratioP1;P1;durP2;ratioP2;P2;SDS_P1;SDS_P2;PMS_P1;PMS_P2;Temp;Humidity;BMP_temperature;BMP_pressure;BME280_temperature;BME280_humidity;BME280_pressure;Samples;Min_cycle;Max_cycle;Signal;HPM_P1;HPM_P2
2022/03/26 00:00:34;;;;;;;45.92;21.15;;;;;;;9.40;56.64;103341.94;4924521;28;20054;-54
2022/03/26 00:02:59;;;;;;;51.60;23.02;;;;;;;9.34;56.89;103341.56;4932546;28;20394;-56
2022/03/26 00:05:25;;;;;;;45.78;21.88;;;;;;;9.29;56.86;103343.91;4932788;28;20339;-53
2022/03/26 00:07:51;;;;;;;50.25;22.88;;;;;;;9.22;57.04;103343.47;4939408;28;20047;-53
2022/03/26 00:10:16;;;;;;;47.65;22.48;;;;;;;9.17;57.24;103344.91;4933742;28;20128;-54
2022/03/26 00:12:41;;;;;;;49.28;22.73;;;;;;;9.13;57.41;103349.06;4933979;28;20137;-52
2022/03/26 00:15:08;;;;;;;51.10;22.42;;;;;;;9.11;57.76;103349.75;4930004;28;20414;-52
2022/03/26 00:17:33;;;;;;;48.70;22.85;;;;;;;9.07;57.73;103345.19;4932705;28;20134;-56
2022/03/26 00:19:59;;;;;;;49.67;23.15;;;;;;;9.03;58.17;103344.09;4934234;28;20470;-54
2022/03/26 00:22:24;;;;;;;46.85;21.60;;;;;;;9.00;58.08;103350.84;4937200;28;20141;-53
2022/03/26 00:24:50;;;;;;;49.78;23.52;;;;;;;9.00;58.15;103348.25;4931435;28;20313;-54
2022/03/26 00:27:15;;;;;;;55.88;22.83;;;;;;;8.99;58.75;103347.34;4937062;28;20136;-51
2022/03/26 00:29:41;;;;;;;51.63;23.23;;;;;;;8.98;58.85;103349.84;4939311;28;20046;-53
2022/03/26 00:32:07;;;;;;;46.47;21.65;;;;;;;8.91;58.86;103349.47;4921692;28;20165;-53
2022/03/26 00:34:33;;;;;;;51.55;22.25;;;;;;;8.87;58.61;103344.91;4931855;28;20514;-50
2022/03/26 00:36:59;;;;;;;50.13;22.52;;;;;;;8.84;59.08;103344.72;4934021;28;20059;-55
2022/03/26 00:39:25;;;;;;;53.20;22.55;;;;;;;8.82;59.10;103342.84;4938368;28;20039;-54
2022/03/26 00:41:51;;;;;;;52.33;23.20;;;;;;;8.80;58.71;103334.03;4930495;28;20304;-55
2022/03/26 00:44:17;;;;;;;49.60;22.67;;;;;;;8.78;59.14;103344.34;4937649;28;20077;-54
2022/03/26 00:46:45;;;;;;;51.38;22.67;;;;;;;8.77;59.27;103349.47;4924814;28;20051;-53
2022/03/26 00:49:11;;;;;;;55.53;23.70;;;;;;;8.73;59.38;103345.78;4937026;28;20390;-54
2022/03/26 00:51:44;;;;;;;51.55;23.05;;;;;;;8.72;59.26;103350.91;4938022;28;20050;-54
2022/03/26 00:54:10;;;;;;;55.38;23.80;;;;;;;8.66;59.56;103359.22;4938923;28;20498;-54
2022/03/26 00:56:37;;;;;;;56.83;23.45;;;;;;;8.64;59.60;103354.75;4937085;28;20368;-51
2022/03/26 00:59:02;;;;;;;53.17;23.95;;;;;;;8.66;59.88;103355.75;4938650;28;20054;-49
2022/03/26 01:01:28;;;;;;;52.30;24.42;;;;;;;8.64;59.90;103358.25;4938265;28;20486;-51
2022/03/26 01:03:53;;;;;;;57.70;23.63;;;;;;;8.63;60.05;103360.75;4936225;28;20475;-54
2022/03/26 01:06:20;;;;;;;52.58;23.23;;;;;;;8.58;59.81;103357.88;4937305;28;20093;-50
2022/03/26 01:08:46;;;;;;;51.72;23.80;;;;;;;8.59;59.67;103362.28;4934007;28;20105;-53
2022/03/26 01:11:11;;;;;;;58.50;24.42;;;;;;;8.52;59.80;103357.50;4934520;28;20222;-53
2022/03/26 01:13:38;;;;;;;54.85;25.02;;;;;;;8.46;60.03;103360.63;4940116;28;20574;-54
2022/03/26 01:16:05;;;;;;;55.28;24.70;;;;;;;8.45;60.09;103358.81;4940276;28;20056;-50
2022/03/26 01:18:30;;;;;;;53.28;23.95;;;;;;;8.42;60.41;103357.72;4921314;28;20549;-53
2022/03/26 01:20:56;;;;;;;54.75;26.30;;;;;;;8.37;60.72;103356.53;4940984;28;20249;-49
2022/03/26 01:23:22;;;;;;;56.50;24.65;;;;;;;8.35;60.57;103360.78;4939175;28;20054;-53
2022/03/26 01:25:47;;;;;;;55.05;23.95;;;;;;;8.35;60.63;103355.56;4936089;28;20890;-54
2022/03/26 01:28:13;;;;;;;58.92;25.00;;;;;;;8.31;60.94;103343.16;4941481;28;20592;-50
2022/03/26 01:30:38;;;;;;;55.50;23.77;;;;;;;8.30;61.00;103349.13;4931485;28;20149;-53
2022/03/26 01:33:04;;;;;;;56.30;24.45;;;;;;;8.26;60.90;103347.16;4938963;28;20054;-53
2022/03/26 01:35:29;;;;;;;55.75;24.63;;;;;;;8.26;61.00;103344.56;4936058;28;20052;-49
2022/03/26 01:37:55;;;;;;;55.72;24.58;;;;;;;8.29;60.69;103350.84;4936719;28;20567;-50
2022/03/26 01:40:20;;;;;;;54.45;24.95;;;;;;;8.25;61.19;103359.25;4939774;28;20478;-49
2022/03/26 01:42:46;;;;;;;53.85;24.48;;;;;;;8.27;61.06;103352.47;4926260;28;20697;-50
2022/03/26 01:45:12;;;;;;;55.22;24.27;;;;;;;8.31;60.76;103357.06;4941236;28;20113;-54
2022/03/26 01:47:38;;;;;;;53.25;24.58;;;;;;;8.26;61.17;103348.06;4936829;28;20493;-52
2022/03/26 01:50:04;;;;;;;55.60;24.58;;;;;;;8.26;61.02;103347.16;4934378;28;20058;-52
2022/03/26 01:52:29;;;;;;;53.75;24.55;;;;;;;8.24;61.16;103348.75;4938289;28;20058;-53
2022/03/26 01:54:55;;;;;;;53.10;24.95;;;;;;;8.24;61.10;103340.94;4940585;28;20046;-53
2022/03/26 01:57:20;;;;;;;57.25;25.17;;;;;;;8.21;61.58;103344.28;4928054;28;20046;-55
2022/03/26 01:59:46;;;;;;;50.38;23.35;;;;;;;8.25;61.07;103341.06;4935955;28;20039;-56
2022/03/26 02:02:11;;;;;;;49.40;23.17;;;;;;;8.23;61.20;103345.28;4937197;28;20053;-55
2022/03/26 02:04:37;;;;;;;57.80;24.80;;;;;;;8.19;61.35;103334.56;4929215;28;20157;-52
2022/03/26 02:07:03;;;;;;;63.35;25.10;;;;;;;8.18;61.74;103337.97;4938648;28;20043;-53
2022/03/26 02:09:35;;;;;;;54.20;24.60;;;;;;;8.20;61.63;103338.97;4938815;28;20895;-52
2022/03/26 02:12:01;;;;;;;50.00;22.95;;;;;;;8.18;61.47;103333.69;4935529;28;20042;-54
2022/03/26 02:14:27;;;;;;;51.40;22.70;;;;;;;8.19;61.27;103330.28;4934909;28;20085;-53
2022/03/26 02:16:52;;;;;;;51.13;24.23;;;;;;;8.18;61.52;103335.38;4931518;28;20046;-53
2022/03/26 02:19:19;;;;;;;56.20;23.73;;;;;;;8.17;61.47;103336.22;4929935;28;20430;-53
2022/03/26 02:21:49;;;;;;;53.47;23.35;;;;;;;8.16;61.49;103330.09;4937731;28;20081;-53
2022/03/26 02:24:15;;;;;;;53.90;23.38;;;;;;;8.14;61.45;103334.31;4942980;28;20134;-50
2022/03/26 02:26:41;;;;;;;57.47;23.75;;;;;;;8.10;61.48;103328.03;4935162;28;20041;-50
2022/03/26 02:29:09;;;;;;;54.70;23.50;;;;;;;8.07;61.57;103332.13;4930046;28;20631;-50
2022/03/26 02:31:36;;;;;;;52.25;24.42;;;;;;;8.05;61.36;103333.75;4937579;28;20162;-52
2022/03/26 02:34:03;;;;;;;54.25;24.02;;;;;;;8.05;61.60;103332.00;4937568;28;20038;-55
2022/03/26 02:36:28;;;;;;;51.72;23.40;;;;;;;8.04;61.56;103338.03;4929976;28;20343;-53
2022/03/26 02:38:54;;;;;;;56.63;24.67;;;;;;;8.00;61.70;103335.13;4936022;28;20496;-55
2022/03/26 02:41:19;;;;;;;58.28;24.80;;;;;;;7.97;61.50;103333.25;4934555;28;20047;-54
2022/03/26 02:43:45;;;;;;;58.40;23.83;;;;;;;7.98;61.43;103332.47;4935144;28;20038;-51
2022/03/26 02:46:10;;;;;;;53.45;23.67;;;;;;;7.98;61.53;103329.84;4942753;28;20051;-54
2022/03/26 02:48:39;;;;;;;53.22;23.65;;;;;;;8.01;61.27;103329.13;4931932;28;20132;-56
2022/03/26 02:51:05;;;;;;;56.88;24.50;;;;;;;7.97;61.69;103324.56;4938141;28;20051;-53
2022/03/26 02:53:32;;;;;;;55.13;24.13;;;;;;;7.93;61.58;103328.66;4936087;28;20078;-59
2022/03/26 02:55:58;;;;;;;58.97;23.90;;;;;;;7.93;61.55;103330.38;4938040;28;20419;-54
2022/03/26 02:58:23;;;;;;;58.33;24.85;;;;;;;7.95;61.59;103326.16;4938242;28;20047;-51
2022/03/26 03:00:49;;;;;;;54.60;24.15;;;;;;;7.94;61.80;103326.94;4924866;28;20039;-54
2022/03/26 03:03:15;;;;;;;55.70;23.80;;;;;;;7.93;61.70;103325.19;4943270;28;20054;-55
2022/03/26 03:05:40;;;;;;;57.38;23.73;;;;;;;7.91;61.57;103327.69;4938977;28;20150;-55
2022/03/26 03:08:06;;;;;;;59.80;25.23;;;;;;;7.88;61.89;103323.97;4936183;28;21062;-52
2022/03/26 03:10:32;;;;;;;55.40;24.08;;;;;;;7.89;61.60;103325.78;4936260;28;20482;-53
2022/03/26 03:12:58;;;;;;;55.97;23.55;;;;;;;7.87;61.89;103328.25;4932722;28;20128;-53
2022/03/26 03:15:23;;;;;;;68.43;25.85;;;;;;;7.83;62.21;103327.97;4933144;28;20574;-52
2022/03/26 03:17:49;;;;;;;62.92;25.65;;;;;;;7.82;61.84;103326.19;4936996;28;20031;-50
2022/03/26 03:20:15;;;;;;;57.85;25.25;;;;;;;7.79;62.20;103324.31;4920401;28;20144;-53
2022/03/26 03:22:42;;;;;;;61.03;26.15;;;;;;;7.73;62.52;103329.09;4933921;28;20478;-52
2022/03/26 03:25:09;;;;;;;62.97;26.35;;;;;;;7.72;62.53;103325.59;4926355;28;22171;-52
2022/03/26 03:27:35;;;;;;;59.92;24.42;;;;;;;7.75;62.46;103328.38;4932723;28;20069;-51
2022/03/26 03:30:00;;;;;;;56.53;24.98;;;;;;;7.75;62.33;103330.06;4931099;28;20561;-54
2022/03/26 03:32:26;;;;;;;65.10;26.63;;;;;;;7.77;62.87;103331.09;4935754;28;20452;-52
2022/03/26 03:34:52;;;;;;;65.28;27.17;;;;;;;7.79;62.72;103333.78;4927982;28;20075;-50
2022/03/26 03:37:18;;;;;;;69.32;27.73;;;;;;;7.81;62.92;103335.66;4933926;28;20027;-51
2022/03/26 03:39:44;;;;;;;73.55;28.45;;;;;;;7.87;63.20;103332.59;4938530;28;20039;-50
2022/03/26 03:42:10;;;;;;;67.18;26.70;;;;;;;7.86;62.47;103329.09;4929523;28;20047;-51
2022/03/26 03:44:35;;;;;;;72.82;27.83;;;;;;;7.87;62.58;103330.00;4928623;28;20835;-52
2022/03/26 03:47:02;;;;;;;74.25;29.40;;;;;;;7.96;62.87;103333.16;4936699;28;20055;-50
2022/03/26 03:49:31;;;;;;;73.40;28.55;;;;;;;7.92;62.61;103337.25;4936039;28;20042;-51
2022/03/26 03:51:57;;;;;;;77.28;30.92;;;;;;;7.93;63.16;103339.03;4938491;28;20105;-49
2022/03/26 03:54:23;;;;;;;73.15;29.13;;;;;;;8.00;63.22;103340.31;4928278;28;20071;-54
2022/03/26 03:56:48;;;;;;;69.50;28.77;;;;;;;7.95;62.86;103340.03;4931090;28;20050;-54
2022/03/26 03:59:13;;;;;;;71.05;28.75;;;;;;;7.84;62.76;103334.97;4928200;28;20063;-49
2022/03/26 04:01:38;;;;;;;73.32;29.13;;;;;;;7.75;62.85;103335.28;4934929;28;20310;-50
2022/03/26 04:04:04;;;;;;;74.07;29.52;;;;;;;7.69;63.45;103338.38;4940901;28;20589;-52
2022/03/26 04:06:29;;;;;;;69.40;29.02;;;;;;;7.64;63.47;103338.88;4927986;28;20183;-52
2022/03/26 04:08:55;;;;;;;70.38;29.42;;;;;;;7.60;64.26;103336.91;4929272;28;20038;-53
2022/03/26 04:11:20;;;;;;;63.25;27.67;;;;;;;7.60;63.79;103335.22;4933291;28;20150;-52
2022/03/26 04:13:46;;;;;;;70.47;28.83;;;;;;;7.57;63.81;103337.59;4936249;28;20373;-54
2022/03/26 04:16:12;;;;;;;71.20;29.40;;;;;;;7.52;63.88;103333.81;4932760;28;20047;-50
2022/03/26 04:18:38;;;;;;;77.68;30.42;;;;;;;7.45;64.13;103334.19;4927558;28;20684;-51
2022/03/26 04:21:03;;;;;;;74.97;31.33;;;;;;;7.43;64.30;103329.72;4935310;28;20421;-50
2022/03/26 04:23:29;;;;;;;74.38;30.25;;;;;;;7.40;64.10;103329.50;4934229;28;20113;-52
2022/03/26 04:25:54;;;;;;;76.22;29.13;;;;;;;7.38;64.33;103328.53;4941483;28;20035;-53
2022/03/26 04:28:25;;;;;;;79.45;31.10;;;;;;;7.36;64.47;103338.81;4935859;28;20039;-53
2022/03/26 04:30:51;;;;;;;76.45;30.63;;;;;;;7.32;64.38;103332.50;4939469;28;21748;-50
2022/03/26 04:33:17;;;;;;;81.88;31.58;;;;;;;7.31;64.28;103342.81;4936935;28;20129;-50
2022/03/26 04:35:42;;;;;;;72.63;30.63;;;;;;;7.32;64.86;103348.06;4940485;28;20042;-52
2022/03/26 04:38:08;;;;;;;76.35;30.05;;;;;;;7.29;64.90;103336.59;4933376;28;20049;-51
2022/03/26 04:40:33;;;;;;;84.43;31.08;;;;;;;7.28;65.06;103343.47;4936116;28;20070;-50
2022/03/26 04:42:58;;;;;;;72.25;29.58;;;;;;;7.28;64.78;103348.66;4939831;28;20088;-55
2022/03/26 04:45:25;;;;;;;77.32;29.60;;;;;;;7.27;65.19;103352.06;4945256;28;20050;-50
2022/03/26 04:47:51;;;;;;;76.32;30.48;;;;;;;7.24;65.34;103346.69;4937565;28;20070;-51
2022/03/26 04:50:16;;;;;;;83.75;31.45;;;;;;;7.20;65.58;103348.94;4937636;28;20118;-49
2022/03/26 04:52:42;;;;;;;80.22;31.52;;;;;;;7.17;65.39;103349.66;4933251;28;20050;-51
2022/03/26 04:55:09;;;;;;;82.03;31.70;;;;;;;7.17;65.83;103351.34;4938958;28;20282;-53
2022/03/26 04:57:39;;;;;;;75.35;30.27;;;;;;;7.14;65.76;103345.94;4932967;28;20055;-52
2022/03/26 05:00:05;;;;;;;73.63;28.98;;;;;;;7.11;65.60;103348.34;4934774;28;20235;-54
2022/03/26 05:02:30;;;;;;;82.80;30.98;;;;;;;7.10;65.94;103351.75;4935356;28;20585;-52
2022/03/26 05:04:56;;;;;;;84.10;32.38;;;;;;;7.06;65.87;103348.06;4930103;28;20049;-50
2022/03/26 05:10:05;;;;;;;80.97;30.92;;;;;;;7.03;66.21;103346.94;4942459;28;20065;-52
2022/03/26 05:12:31;;;;;;;83.18;30.63;;;;;;;7.01;66.27;103344.25;4935114;28;20046;-53
2022/03/26 05:14:56;;;;;;;83.20;31.27;;;;;;;7.03;66.16;103345.25;4940378;28;20051;-55
2022/03/26 05:17:21;;;;;;;78.53;31.20;;;;;;;7.04;65.79;103339.25;4939406;28;20084;-51
2022/03/26 05:19:47;;;;;;;72.90;30.25;;;;;;;7.03;66.21;103339.16;4931858;28;20404;-51
2022/03/26 05:22:12;;;;;;;84.50;31.58;;;;;;;7.02;65.99;103348.63;4940334;28;20451;-52
2022/03/26 05:24:37;;;;;;;79.60;31.17;;;;;;;7.01;66.22;103343.38;4922182;28;20413;-54
2022/03/26 05:27:03;;;;;;;84.45;32.75;;;;;;;7.00;66.13;103337.28;4941407;28;20055;-54
2022/03/26 05:29:29;;;;;;;87.88;31.85;;;;;;;7.03;65.81;103347.84;4936493;28;20070;-52
2022/03/26 05:31:54;;;;;;;86.60;32.50;;;;;;;7.04;66.52;103344.44;4937904;28;20042;-54
2022/03/26 05:34:20;;;;;;;83.97;32.30;;;;;;;7.06;66.14;103352.34;4939583;28;20784;-55
2022/03/26 05:36:45;;;;;;;85.80;33.78;;;;;;;7.07;66.43;103346.38;4923190;28;20323;-53
2022/03/26 05:39:10;;;;;;;88.70;34.72;;;;;;;7.08;66.45;103349.03;4933722;28;20410;-56
2022/03/26 05:41:36;;;;;;;90.10;34.58;;;;;;;7.09;66.65;103350.84;4934623;28;20861;-55
2022/03/26 05:44:01;;;;;;;90.95;33.70;;;;;;;7.14;66.46;103349.44;4941829;28;20463;-51
2022/03/26 05:46:27;;;;;;;95.40;35.13;;;;;;;7.19;66.60;103350.69;4937323;28;20151;-54
2022/03/26 05:48:53;;;;;;;95.38;35.38;;;;;;;7.23;66.70;103352.66;4937112;28;20038;-55
2022/03/26 05:51:18;;;;;;;98.85;36.97;;;;;;;7.30;66.83;103360.06;4931883;28;20533;-52
2022/03/26 05:53:44;;;;;;;104.63;37.45;;;;;;;7.36;66.86;103358.66;4934036;28;20566;-53
2022/03/26 05:56:10;;;;;;;107.40;39.05;;;;;;;7.42;66.90;103359.97;4933369;28;20053;-52
2022/03/26 05:58:35;;;;;;;101.88;38.17;;;;;;;7.49;67.08;103362.16;4933866;28;20031;-54
2022/03/26 06:01:01;;;;;;;99.72;38.28;;;;;;;7.58;67.11;103362.75;4938703;28;20557;-53
2022/03/26 06:03:26;;;;;;;104.43;38.92;;;;;;;7.67;66.91;103360.78;4934161;28;20057;-54
2022/03/26 06:05:52;;;;;;;104.78;38.70;;;;;;;7.82;66.90;103368.63;4938349;28;20026;-54
2022/03/26 06:08:17;;;;;;;99.50;37.90;;;;;;;7.93;66.60;103370.19;4935848;28;20215;-54
2022/03/26 06:10:43;;;;;;;104.30;39.55;;;;;;;8.07;65.82;103374.59;4936321;28;20085;-53
2022/03/26 06:13:08;;;;;;;100.03;38.42;;;;;;;8.54;66.13;103367.16;4935246;28;20050;-52
2022/03/26 06:15:34;;;;;;;94.15;37.60;;;;;;;9.13;64.26;103375.09;4931166;28;20045;-55
2022/03/26 06:18:01;;;;;;;97.35;40.08;;;;;;;9.81;61.90;103375.56;4941646;28;20074;-53
2022/03/26 06:20:27;;;;;;;101.93;41.13;;;;;;;10.55;60.14;103374.44;4936060;28;20046;-53
2022/03/26 06:22:53;;;;;;;96.57;40.00;;;;;;;11.13;58.08;103371.38;4935665;28;20200;-51
2022/03/26 06:25:20;;;;;;;100.50;39.67;;;;;;;11.56;56.61;103367.47;4938827;28;20565;-55
2022/03/26 06:27:47;;;;;;;92.57;40.15;;;;;;;12.00;55.38;103367.03;4936003;28;20050;-53
2022/03/26 06:30:12;;;;;;;90.30;40.80;;;;;;;12.35;54.57;103376.50;4938982;28;20602;-54
2022/03/26 06:32:38;;;;;;;92.43;41.50;;;;;;;12.66;53.65;103372.66;4930819;28;20054;-54
2022/03/26 06:35:05;;;;;;;90.75;42.25;;;;;;;12.98;52.06;103365.38;4941288;28;20462;-53
2022/03/26 06:37:30;;;;;;;91.00;40.63;;;;;;;13.33;51.92;103372.16;4934055;28;20542;-55
2022/03/26 06:39:56;;;;;;;95.80;44.33;;;;;;;13.56;49.63;103367.84;4932490;28;20042;-53
2022/03/26 06:42:21;;;;;;;95.97;45.83;;;;;;;13.82;49.37;103372.41;4938675;28;20061;-56
2022/03/26 06:44:46;;;;;;;93.95;44.72;;;;;;;14.21;48.76;103372.16;4912668;28;20546;-53
2022/03/26 06:47:12;;;;;;;90.40;42.67;;;;;;;14.34;51.09;103373.50;4938219;28;20050;-51
2022/03/26 06:49:37;;;;;;;98.35;45.47;;;;;;;14.60;48.90;103372.78;4941221;28;20373;-54
2022/03/26 06:52:04;;;;;;;94.63;47.95;;;;;;;14.76;47.64;103366.38;4937632;28;20078;-54
2022/03/26 06:54:30;;;;;;;96.35;47.15;;;;;;;14.98;47.19;103368.91;4925633;28;20038;-54
2022/03/26 06:56:55;;;;;;;93.70;46.53;;;;;;;15.10;47.23;103374.59;4933687;28;20050;-55
2022/03/26 06:59:21;;;;;;;98.47;47.63;;;;;;;15.49;47.07;103368.91;4938585;28;20466;-55
2022/03/26 07:01:46;;;;;;;87.63;45.28;;;;;;;15.81;46.73;103370.84;4933427;28;20306;-54
2022/03/26 07:04:12;;;;;;;87.57;45.85;;;;;;;15.96;45.72;103373.06;4934624;28;20289;-54
2022/03/26 07:06:37;;;;;;;90.95;46.42;;;;;;;16.23;44.53;103372.16;4925952;28;20479;-52
2022/03/26 07:09:03;;;;;;;96.25;46.83;;;;;;;16.66;44.66;103376.06;4937432;28;20074;-52
2022/03/26 07:11:28;;;;;;;91.05;47.33;;;;;;;16.90;43.86;103383.72;4938993;28;20051;-55
2022/03/26 07:13:54;;;;;;;95.13;46.42;;;;;;;16.96;43.15;103379.53;4926351;28;20117;-53
2022/03/26 07:16:19;;;;;;;90.70;47.33;;;;;;;17.45;42.67;103379.03;4932937;28;20047;-51
2022/03/26 07:18:45;;;;;;;86.88;46.83;;;;;;;18.00;40.95;103382.13;4930766;28;20533;-54
2022/03/26 07:21:10;;;;;;;84.22;44.38;;;;;;;17.81;41.61;103389.63;4937037;28;20157;-53
2022/03/26 07:23:36;;;;;;;86.28;45.30;;;;;;;17.76;41.19;103391.25;4935792;28;20042;-53
2022/03/26 07:26:03;;;;;;;84.57;46.08;;;;;;;17.45;42.06;103384.31;4940308;28;20070;-52
2022/03/26 07:28:29;;;;;;;82.03;43.17;;;;;;;18.43;40.80;103394.50;4937663;28;20049;-53
2022/03/26 07:30:54;;;;;;;83.68;45.25;;;;;;;18.00;41.04;103395.31;4932793;28;21329;-53
2022/03/26 07:33:19;;;;;;;87.18;44.95;;;;;;;17.92;41.88;103396.91;4934202;28;20035;-54
2022/03/26 07:35:45;;;;;;;87.97;44.42;;;;;;;17.93;41.41;103398.72;4939216;28;20718;-51
2022/03/26 07:38:11;;;;;;;81.53;44.40;;;;;;;17.95;41.26;103399.59;4928189;28;20413;-53
2022/03/26 07:40:36;;;;;;;83.40;43.80;;;;;;;18.33;40.71;103403.09;4927488;28;20054;-53
2022/03/26 07:43:02;;;;;;;82.55;44.40;;;;;;;17.87;41.26;103409.13;4933199;28;20062;-52
2022/03/26 07:45:27;;;;;;;82.47;44.20;;;;;;;17.71;42.12;103410.47;4933244;28;20125;-54
2022/03/26 07:47:53;;;;;;;87.70;44.45;;;;;;;16.65;42.67;103405.88;4934779;28;20047;-54
2022/03/26 07:50:18;;;;;;;85.75;44.58;;;;;;;16.41;44.43;103410.38;4938735;28;20054;-49
2022/03/26 07:52:44;;;;;;;90.72;46.47;;;;;;;16.05;44.35;103423.31;4933919;28;20047;-52
2022/03/26 07:55:10;;;;;;;87.63;43.85;;;;;;;15.69;45.34;103425.66;4939059;28;20073;-53
2022/03/26 07:57:36;;;;;;;92.32;44.00;;;;;;;15.77;45.45;103426.81;4933022;28;20465;-54
2022/03/26 08:00:11;;;;;;;87.18;42.13;;;;;;;15.51;45.57;103425.03;4939177;28;20039;-54
2022/03/26 08:02:36;;;;;;;79.72;40.60;;;;;;;15.76;46.24;103423.31;4930642;28;20596;-53
2022/03/26 08:05:02;;;;;;;80.05;39.63;;;;;;;15.80;44.77;103434.81;4935245;28;20098;-52
2022/03/26 08:07:28;;;;;;;76.82;38.67;;;;;;;15.47;45.42;103433.66;4933822;28;20566;-49
2022/03/26 08:09:53;;;;;;;81.60;38.72;;;;;;;15.50;45.63;103437.28;4940250;28;20469;-53
2022/03/26 08:12:18;;;;;;;80.07;39.45;;;;;;;15.81;45.16;103441.84;4937590;28;20072;-49
2022/03/26 08:14:44;;;;;;;79.93;39.33;;;;;;;15.80;45.43;103440.06;4921608;28;20110;-53
2022/03/26 08:17:09;;;;;;;81.30;38.97;;;;;;;15.63;45.29;103449.13;4929045;28;20053;-54
2022/03/26 08:19:36;;;;;;;81.22;39.22;;;;;;;15.79;45.28;103438.31;4933166;28;20058;-50
2022/03/26 08:22:03;;;;;;;79.85;39.80;;;;;;;15.86;44.82;103439.41;4936737;28;20552;-55
2022/03/26 08:24:28;;;;;;;85.38;40.30;;;;;;;15.84;45.12;103444.59;4933863;28;20041;-52
2022/03/26 08:26:54;;;;;;;82.40;39.75;;;;;;;15.80;45.35;103440.97;4933179;28;20038;-55
2022/03/26 08:29:28;;;;;;;85.30;38.90;;;;;;;16.11;45.47;103441.94;4931159;28;20049;-58
2022/03/26 08:31:54;;;;;;;81.43;39.83;;;;;;;16.21;44.24;103444.94;4934127;28;20124;-53
2022/03/26 08:34:20;;;;;;;83.38;39.30;;;;;;;15.63;43.79;103443.88;4933932;28;20573;-53
2022/03/26 08:36:46;;;;;;;80.47;36.83;;;;;;;16.22;43.86;103448.47;4926489;28;20144;-54
2022/03/26 08:39:12;;;;;;;86.43;37.97;;;;;;;16.26;43.41;103447.69;4933732;28;20050;-51
2022/03/26 08:41:38;;;;;;;76.45;35.15;;;;;;;16.54;41.96;103442.41;4932457;28;20039;-54
2022/03/26 08:44:03;;;;;;;76.70;37.25;;;;;;;16.61;42.69;103444.41;4937059;28;20054;-54
2022/03/26 08:46:29;;;;;;;75.50;36.90;;;;;;;16.84;43.03;103444.16;4934318;28;20212;-51
2022/03/26 08:48:56;;;;;;;81.85;38.28;;;;;;;16.87;42.92;103444.28;4930159;28;20054;-55
2022/03/26 08:51:21;;;;;;;78.93;37.30;;;;;;;17.00;42.12;103446.41;4931199;28;20587;-55
2022/03/26 08:53:47;;;;;;;77.80;37.83;;;;;;;16.61;43.02;103446.16;4932162;28;20050;-54
2022/03/26 08:56:12;;;;;;;74.82;36.67;;;;;;;16.88;42.65;103439.06;4937141;28;21163;-54
2022/03/26 08:58:38;;;;;;;80.90;37.80;;;;;;;16.73;43.07;103443.88;4932642;28;20319;-54
2022/03/26 09:01:04;;;;;;;77.63;35.13;;;;;;;16.98;42.48;103438.44;4928430;28;20062;-54
2022/03/26 09:03:30;;;;;;;68.20;33.80;;;;;;;17.23;41.92;103445.28;4932670;28;20054;-52
2022/03/26 09:05:57;;;;;;;73.25;35.85;;;;;;;17.34;41.70;103440.28;4937821;28;20455;-55
2022/03/26 09:08:22;;;;;;;69.97;35.20;;;;;;;17.32;42.01;103448.13;4937017;28;20499;-54
2022/03/26 09:10:48;;;;;;;63.78;33.38;;;;;;;17.47;41.68;103449.41;4937472;28;20897;-51
2022/03/26 09:13:15;;;;;;;64.32;32.60;;;;;;;17.57;41.19;103454.06;4941478;28;20070;-53
2022/03/26 09:15:40;;;;;;;67.88;33.35;;;;;;;17.81;41.06;103452.06;4938193;28;20545;-53
2022/03/26 09:18:06;;;;;;;62.30;32.17;;;;;;;17.75;41.10;103459.81;4939734;28;20647;-52
2022/03/26 09:20:32;;;;;;;71.82;34.58;;;;;;;17.55;41.44;103461.06;4929443;28;20061;-54
2022/03/26 09:22:57;;;;;;;62.55;32.47;;;;;;;17.48;42.01;103462.63;4935429;28;20058;-52
2022/03/26 09:25:23;;;;;;;62.10;31.17;;;;;;;17.65;41.40;103458.72;4937067;28;20126;-52
2022/03/26 09:27:49;;;;;;;66.80;31.08;;;;;;;17.34;41.93;103462.28;4943545;28;20047;-54
2022/03/26 09:30:16;;;;;;;68.63;32.35;;;;;;;17.69;42.06;103459.66;4934761;28;20069;-53
2022/03/26 09:32:46;;;;;;;64.72;32.75;;;;;;;17.61;43.90;103456.88;4920130;28;20047;-53
2022/03/26 09:35:13;;;;;;;57.65;29.02;;;;;;;17.90;42.07;103461.97;4938393;28;20406;-51
2022/03/26 09:37:40;;;;;;;60.13;30.45;;;;;;;17.79;41.74;103456.44;4936288;28;20063;-49
2022/03/26 09:40:07;;;;;;;53.92;27.52;;;;;;;17.93;41.76;103462.03;4942630;28;20039;-53
2022/03/26 09:42:33;;;;;;;55.55;26.88;;;;;;;17.82;41.71;103459.13;4927186;28;20049;-59
2022/03/26 09:44:58;;;;;;;51.60;27.17;;;;;;;17.46;41.54;103459.06;4936972;28;20116;-51
2022/03/26 09:47:24;;;;;;;48.88;25.88;;;;;;;17.43;41.59;103464.28;4937248;28;20405;-53
2022/03/26 09:49:49;;;;;;;54.15;26.73;;;;;;;17.49;42.25;103464.44;4938324;28;20585;-52
2022/03/26 09:52:15;;;;;;;51.47;27.27;;;;;;;17.56;42.65;103466.38;4935705;28;20043;-54
2022/03/26 09:54:41;;;;;;;51.40;27.15;;;;;;;17.59;42.66;103469.06;4921079;28;20141;-53
2022/03/26 09:57:07;;;;;;;48.83;24.98;;;;;;;17.79;41.81;103461.72;4935335;28;20051;-52
2022/03/26 09:59:33;;;;;;;45.60;22.63;;;;;;;17.57;41.26;103462.84;4939645;28;20065;-53
2022/03/26 10:01:58;;;;;;;44.20;21.92;;;;;;;18.08;40.62;103472.97;4939151;28;20487;-53
2022/03/26 10:04:28;;;;;;;35.30;18.73;;;;;;;17.90;39.80;103465.50;4939185;28;20130;-52
2022/03/26 10:06:56;;;;;;;36.80;19.40;;;;;;;17.96;40.03;103467.38;4931708;28;20134;-53
2022/03/26 10:09:37;;;;;;;39.65;21.77;;;;;;;17.92;40.00;103461.16;4939156;28;20077;-51
2022/03/26 10:12:05;;;;;;;42.42;23.52;;;;;;;17.70;41.04;103464.09;4934515;28;20042;-50
2022/03/26 10:14:44;;;;;;;48.58;25.23;;;;;;;17.43;41.89;103465.16;4931743;28;20345;-51
2022/03/26 10:17:14;;;;;;;48.25;24.50;;;;;;;17.50;42.15;103452.13;4933707;28;20853;-52
2022/03/26 10:19:44;;;;;;;45.15;25.40;;;;;;;17.68;41.51;103457.91;4937029;28;20057;-51
2022/03/26 10:22:28;;;;;;;46.85;25.83;;;;;;;17.79;41.44;103456.44;4941030;28;20121;-52
2022/03/26 10:24:56;;;;;;;48.08;24.55;;;;;;;18.09;40.86;103448.34;4929759;28;20058;-53
2022/03/26 10:27:21;;;;;;;55.28;27.15;;;;;;;18.37;40.40;103450.75;4935250;28;20058;-52
2022/03/26 10:29:52;;;;;;;51.08;27.85;;;;;;;18.54;40.20;103446.72;4937939;28;20182;-54
2022/03/26 10:32:41;;;;;;;50.90;25.42;;;;;;;18.64;39.55;103454.03;4931311;28;20210;-51
2022/03/26 10:35:16;;;;;;;54.50;25.98;;;;;;;18.80;38.32;103442.00;4934187;28;20062;-52
2022/03/26 10:38:01;;;;;;;53.58;27.58;;;;;;;18.69;38.82;103448.81;4938499;28;20042;-51
2022/03/26 10:40:27;;;;;;;57.53;27.38;;;;;;;18.62;38.21;103439.88;4935026;28;20038;-54
2022/03/26 10:43:03;;;;;;;56.78;28.38;;;;;;;18.45;39.80;103437.72;4933432;28;20043;-54
2022/03/26 10:45:30;;;;;;;57.63;28.23;;;;;;;18.63;37.86;103427.56;4938218;28;20043;-51
2022/03/26 10:47:57;;;;;;;61.05;27.48;;;;;;;18.74;37.57;103425.13;4935420;28;20043;-53
2022/03/26 10:50:25;;;;;;;59.50;28.33;;;;;;;18.97;37.38;103430.00;4936401;28;20465;-53
2022/03/26 10:52:56;;;;;;;55.55;27.55;;;;;;;18.85;36.40;103431.50;4930114;28;20043;-51
2022/03/26 10:55:22;;;;;;;66.57;27.20;;;;;;;18.02;37.05;103431.47;4928073;28;20132;-53
2022/03/26 10:57:48;;;;;;;58.17;27.95;;;;;;;18.05;36.47;103431.53;4936014;28;20046;-54
2022/03/26 11:00:15;;;;;;;70.57;28.15;;;;;;;18.38;36.22;103426.13;4931042;28;20542;-52
2022/03/26 11:02:42;;;;;;;58.08;26.63;;;;;;;18.70;36.30;103432.13;4931365;28;20034;-49
2022/03/26 11:05:08;;;;;;;55.85;27.02;;;;;;;18.92;36.02;103421.09;4932446;28;20063;-51
2022/03/26 11:07:37;;;;;;;56.22;26.90;;;;;;;19.08;36.10;103418.75;4931601;28;20592;-53
2022/03/26 11:10:08;;;;;;;61.55;28.58;;;;;;;18.62;36.85;103421.38;4938719;28;20477;-50
2022/03/26 11:12:33;;;;;;;55.05;28.50;;;;;;;18.93;35.19;103422.00;4929586;28;20932;-53